createdAt,value
2022-08-02T00:00:35.489Z,101829.34
2022-08-02T00:03:04.999Z,101836.47
2022-08-02T00:05:33.014Z,101834.00
2022-08-02T00:08:01.065Z,101836.19
2022-08-02T00:10:30.600Z,101834.19
2022-08-02T00:12:59.302Z,101833.13
2022-08-02T00:15:27.454Z,101832.03
2022-08-02T00:17:55.540Z,101840.22
2022-08-02T00:20:25.240Z,101838.69
2022-08-02T00:22:53.258Z,101838.59
2022-08-02T00:25:21.389Z,101829.78
2022-08-02T00:27:49.554Z,101833.72
2022-08-02T00:30:17.557Z,101826.50
2022-08-02T00:32:45.605Z,101828.94
2022-08-02T00:35:13.775Z,101817.22
2022-08-02T00:37:43.685Z,101814.91
2022-08-02T00:40:12.523Z,101808.50
2022-08-02T00:42:40.552Z,101811.06
2022-08-02T00:45:09.438Z,101816.44
2022-08-02T00:47:37.443Z,101821.94
2022-08-02T00:50:06.225Z,101829.44
2022-08-02T00:52:34.269Z,101836.06
2022-08-02T00:55:03.707Z,101821.47
2022-08-02T00:57:31.741Z,101838.34
2022-08-02T00:59:59.648Z,101833.06
2022-08-02T01:02:27.567Z,101843.53
2022-08-02T01:04:55.596Z,101845.66
2022-08-02T01:07:23.679Z,101843.91
2022-08-02T01:09:51.687Z,101842.28
2022-08-02T01:12:21.250Z,101853.22
2022-08-02T01:14:51.493Z,101854.09
2022-08-02T01:17:24.844Z,101855.16
2022-08-02T01:19:58.712Z,101853.44
2022-08-02T01:23:00.984Z,101849.88
2022-08-02T01:25:46.137Z,101860.72
2022-08-02T01:28:29.714Z,101849.50
2022-08-02T01:31:02.490Z,101856.41
2022-08-02T01:33:42.355Z,101851.34
2022-08-02T01:36:13.757Z,101848.72
2022-08-02T01:38:46.691Z,101849.31
2022-08-02T01:41:20.311Z,101850.16
2022-08-02T01:43:55.109Z,101855.53
2022-08-02T01:46:23.634Z,101848.66
2022-08-02T01:48:51.988Z,101852.16
2022-08-02T01:51:44.146Z,101848.81
2022-08-02T01:54:15.863Z,101847.97
2022-08-02T01:56:45.699Z,101847.97
2022-08-02T01:59:18.702Z,101847.22
2022-08-02T02:01:49.299Z,101847.88
2022-08-02T02:04:18.305Z,101851.84
2022-08-02T02:06:47.743Z,101853.59
2022-08-02T02:09:17.309Z,101857.41
2022-08-02T02:12:06.175Z,101854.06
2022-08-02T02:14:37.578Z,101863.09
2022-08-02T02:17:07.247Z,101867.59
2022-08-02T02:19:37.030Z,101864.34
2022-08-02T02:22:05.292Z,101865.28
2022-08-02T02:24:36.757Z,101864.72
2022-08-02T02:27:09.146Z,101857.22
2022-08-02T02:29:45.213Z,101859.25
2022-08-02T02:32:14.943Z,101844.28
2022-08-02T02:34:46.146Z,101842.56
2022-08-02T02:37:19.070Z,101834.59
2022-08-02T02:39:50.504Z,101830.28
2022-08-02T02:42:21.170Z,101829.69
2022-08-02T02:44:52.803Z,101832.28
2022-08-02T02:47:21.509Z,101831.31
2022-08-02T02:49:52.642Z,101824.91
2022-08-02T02:52:21.716Z,101824.22
2022-08-02T02:54:51.185Z,101820.88
2022-08-02T02:57:23.136Z,101828.16
2022-08-02T02:59:54.446Z,101826.41
2022-08-02T03:02:23.009Z,101816.66
2022-08-02T03:04:55.563Z,101825.63
2022-08-02T03:07:26.500Z,101814.22
2022-08-02T03:09:55.169Z,101831.97
2022-08-02T03:12:30.995Z,101822.78
2022-08-02T03:15:05.332Z,101825.56
2022-08-02T03:17:41.558Z,101822.59
2022-08-02T03:20:13.192Z,101820.09
2022-08-02T03:22:41.507Z,101817.41
2022-08-02T03:25:11.025Z,101818.47
2022-08-02T03:27:39.212Z,101811.66
2022-08-02T03:30:11.689Z,101816.66
2022-08-02T03:32:42.707Z,101820.78
2022-08-02T03:35:22.709Z,101817.06
2022-08-02T03:37:53.398Z,101817.63
2022-08-02T03:40:22.836Z,101823.16
2022-08-02T03:42:51.584Z,101823.09
2022-08-02T03:45:21.697Z,101821.34
2022-08-02T03:47:50.013Z,101821.25
2022-08-02T03:50:18.372Z,101821.06
2022-08-02T03:52:47.082Z,101819.34
2022-08-02T03:55:15.016Z,101809.56
2022-08-02T03:57:44.046Z,101801.69
2022-08-02T04:00:14.364Z,101809.84
2022-08-02T04:02:43.705Z,101803.69
2022-08-02T04:05:11.645Z,101804.66
2022-08-02T04:08:15.408Z,101802.56
2022-08-02T04:10:27.917Z,101813.03
2022-08-02T04:12:56.466Z,101820.88
2022-08-02T04:15:24.900Z,101822.31
2022-08-02T04:17:57.745Z,101819.25
2022-08-02T04:20:30.900Z,101819.34
2022-08-02T04:23:03.033Z,101817.72
2022-08-02T04:25:35.776Z,101830.09
2022-08-02T04:28:16.598Z,101831.44
2022-08-02T04:30:46.181Z,101827.66
2022-08-02T04:33:16.234Z,101828.53
2022-08-02T04:35:45.028Z,101832.19
2022-08-02T04:38:14.754Z,101834.72
2022-08-02T04:40:50.983Z,101847.44
2022-08-02T04:43:19.210Z,101846.56
2022-08-02T04:45:49.226Z,101844.75
2022-08-02T04:48:18.761Z,101842.94
2022-08-02T04:50:47.099Z,101829.53
2022-08-02T04:53:15.273Z,101835.16
2022-08-02T04:55:43.426Z,101837.38
2022-08-02T04:58:37.340Z,101837.56
2022-08-02T05:00:59.760Z,101846.47
2022-08-02T05:03:29.167Z,101836.63
2022-08-02T05:05:57.134Z,101837.38
2022-08-02T05:08:25.251Z,101843.13
2022-08-02T05:10:53.348Z,101831.63
2022-08-02T05:13:21.317Z,101836.78
2022-08-02T05:15:50.293Z,101832.78
2022-08-02T05:18:18.393Z,101823.38
2022-08-02T05:20:47.728Z,101841.09
2022-08-02T05:23:15.763Z,101840.09
2022-08-02T05:25:43.659Z,101837.91
2022-08-02T05:28:12.007Z,101830.78
2022-08-02T05:30:40.913Z,101825.25
2022-08-02T05:33:08.857Z,101839.91
2022-08-02T05:35:36.817Z,101842.59
2022-08-02T05:38:10.204Z,101836.63
2022-08-02T05:40:54.467Z,101835.25
2022-08-02T05:43:24.128Z,101837.56
2022-08-02T05:45:53.566Z,101844.25
2022-08-02T05:48:22.207Z,101843.22
2022-08-02T05:50:55.449Z,101830.03
2022-08-02T05:53:34.062Z,101833.44
2022-08-02T05:56:10.518Z,101839.25
2022-08-02T05:58:48.323Z,101834.91
2022-08-02T06:01:24.374Z,101839.13
2022-08-02T06:03:54.048Z,101842.34
2022-08-02T06:06:24.497Z,101830.91
2022-08-02T06:09:00.573Z,101829.00
2022-08-02T06:11:35.999Z,101828.91
2022-08-02T06:14:05.559Z,101826.41
2022-08-02T06:16:41.945Z,101834.63
2022-08-02T06:19:12.986Z,101829.91
2022-08-02T06:22:32.651Z,101833.03
2022-08-02T06:24:34.763Z,101835.72
2022-08-02T06:27:04.030Z,101822.47
2022-08-02T06:29:38.718Z,101832.41
2022-08-02T06:32:09.062Z,101838.72
2022-08-02T06:34:40.557Z,101838.03
2022-08-02T06:37:15.694Z,101843.59
2022-08-02T06:39:50.201Z,101828.47
2022-08-02T06:42:27.316Z,101832.41
2022-08-02T06:44:58.042Z,101825.13
2022-08-02T06:47:27.056Z,101836.13
2022-08-02T06:49:56.663Z,101830.16
2022-08-02T06:52:29.789Z,101826.31
2022-08-02T06:55:01.527Z,101808.22
2022-08-02T06:57:30.606Z,101815.34
2022-08-02T07:00:01.922Z,101809.94
2022-08-02T07:02:30.576Z,101810.75
2022-08-02T07:04:58.788Z,101811.25
2022-08-02T07:07:27.657Z,101817.69
2022-08-02T07:10:01.407Z,101812.59
2022-08-02T07:12:33.339Z,101808.44
2022-08-02T07:15:02.615Z,101796.50
2022-08-02T07:17:31.450Z,101802.53
2022-08-02T07:20:00.492Z,101803.59
2022-08-02T07:22:29.580Z,101800.78
2022-08-02T07:24:59.843Z,101797.81
2022-08-02T07:27:29.430Z,101791.16
2022-08-02T07:29:59.013Z,101785.81
2022-08-02T07:32:29.346Z,101785.84
2022-08-02T07:34:58.389Z,101783.06
2022-08-02T07:37:54.176Z,101787.75
2022-08-02T07:40:20.295Z,101793.25
2022-08-02T07:42:50.084Z,101795.03
2022-08-02T07:45:19.828Z,101787.19
2022-08-02T07:47:47.901Z,101790.97
2022-08-02T07:50:17.372Z,101786.94
2022-08-02T07:52:46.555Z,101795.19
2022-08-02T07:55:16.127Z,101791.84
2022-08-02T07:57:46.560Z,101786.69
2022-08-02T08:00:17.465Z,101783.69
2022-08-02T08:02:47.557Z,101783.56
2022-08-02T08:05:15.960Z,101784.91
2022-08-02T08:07:43.962Z,101775.13
2022-08-02T08:10:12.074Z,101782.66
2022-08-02T08:12:40.135Z,101783.13
2022-08-02T08:15:09.409Z,101780.25
2022-08-02T08:17:38.255Z,101767.84
2022-08-02T08:20:11.736Z,101766.22
2022-08-02T08:22:42.005Z,101760.75
2022-08-02T08:25:10.380Z,101761.69
2022-08-02T08:27:38.247Z,101748.16
2022-08-02T08:30:08.060Z,101743.31
2022-08-02T08:32:35.916Z,101744.66
2022-08-02T08:35:04.061Z,101739.03
2022-08-02T08:37:36.727Z,101733.13
2022-08-02T08:40:06.107Z,101731.56
2022-08-02T08:42:35.133Z,101735.97
2022-08-02T08:45:03.460Z,101727.41
2022-08-02T08:47:36.275Z,101733.44
2022-08-02T08:50:09.529Z,101723.50
2022-08-02T08:52:49.298Z,101725.94
2022-08-02T08:55:18.024Z,101716.63
2022-08-02T08:57:46.343Z,101717.63
2022-08-02T09:00:16.532Z,101725.41
2022-08-02T09:02:45.340Z,101724.94
2022-08-02T09:05:16.619Z,101716.97
2022-08-02T09:07:48.947Z,101732.78
2022-08-02T09:10:37.343Z,101735.81
2022-08-02T09:13:37.897Z,101736.47
2022-08-02T09:16:14.418Z,101724.47
2022-08-02T09:18:46.127Z,101723.59
2022-08-02T09:21:16.242Z,101715.59
2022-08-02T09:23:47.013Z,101705.00
2022-08-02T09:26:16.699Z,101707.91
2022-08-02T09:28:47.330Z,101706.09
2022-08-02T09:31:17.119Z,101703.66
2022-08-02T09:33:46.466Z,101696.94
2022-08-02T09:36:16.253Z,101692.66
2022-08-02T09:38:55.586Z,101690.72
2022-08-02T09:41:25.169Z,101685.88
2022-08-02T09:44:03.871Z,101697.38
2022-08-02T09:46:37.843Z,101692.50
2022-08-02T09:49:09.542Z,101696.25
2022-08-02T09:51:39.482Z,101692.22
2022-08-02T09:54:11.921Z,101689.44
2022-08-02T09:56:48.292Z,101695.66
2022-08-02T09:59:16.920Z,101697.19
2022-08-02T10:01:51.354Z,101692.84
2022-08-02T10:04:31.708Z,101697.06
2022-08-02T10:07:04.059Z,101687.59
2022-08-02T10:09:34.969Z,101689.41
2022-08-02T10:12:04.816Z,101690.53
2022-08-02T10:14:35.249Z,101694.41
2022-08-02T10:17:05.080Z,101697.63
2022-08-02T10:20:02.154Z,101701.31
2022-08-02T10:22:23.965Z,101693.81
2022-08-02T10:24:53.952Z,101676.81
2022-08-02T10:27:22.575Z,101679.63
2022-08-02T10:29:54.848Z,101683.25
2022-08-02T10:32:29.003Z,101685.06
2022-08-02T10:35:18.844Z,101688.09
2022-08-02T10:37:51.923Z,101678.00
2022-08-02T10:40:27.569Z,101679.81
2022-08-02T10:43:00.531Z,101670.75
2022-08-02T10:45:29.749Z,101671.53
2022-08-02T10:48:03.504Z,101665.16
2022-08-02T10:50:53.999Z,101663.97
2022-08-02T10:53:23.984Z,101662.97
2022-08-02T10:55:53.304Z,101649.34
2022-08-02T10:58:26.349Z,101651.91
2022-08-02T11:00:58.955Z,101645.25
2022-08-02T11:03:40.216Z,101641.13
2022-08-02T11:06:25.479Z,101635.00
2022-08-02T11:09:32.007Z,101627.66
2022-08-02T11:12:07.883Z,101621.97
2022-08-02T11:14:37.302Z,101623.13
2022-08-02T11:17:23.017Z,101623.97
2022-08-02T11:20:17.709Z,101617.19
2022-08-02T11:22:47.104Z,101622.44
2022-08-02T11:26:02.642Z,101622.38
2022-08-02T11:28:26.640Z,101619.94
2022-08-02T11:30:59.426Z,101614.66
2022-08-02T11:33:32.888Z,101615.03
2022-08-02T11:36:06.709Z,101610.81
2022-08-02T11:38:34.663Z,101603.81
2022-08-02T11:41:06.117Z,101594.16
2022-08-02T11:43:39.884Z,101596.22
2022-08-02T11:46:14.939Z,101608.38
2022-08-02T11:48:44.219Z,101603.22
2022-08-02T11:51:13.763Z,101606.81
2022-08-02T11:53:50.344Z,101604.44
2022-08-02T11:56:25.067Z,101604.69
2022-08-02T11:59:06.133Z,101599.56
2022-08-02T12:01:36.858Z,101585.19
2022-08-02T12:04:18.168Z,101598.50
2022-08-02T12:06:46.093Z,101591.75
2022-08-02T12:09:18.857Z,101584.97
2022-08-02T12:11:50.398Z,101585.63
2022-08-02T12:14:20.069Z,101588.97
2022-08-02T12:17:06.730Z,101565.94
2022-08-02T12:19:35.512Z,101552.25
2022-08-02T12:22:12.550Z,101561.09
2022-08-02T12:24:42.169Z,101565.22
2022-08-02T12:27:10.745Z,101567.63
2022-08-02T12:29:58.659Z,101564.59
2022-08-02T12:32:27.334Z,101565.16
2022-08-02T12:35:13.246Z,101562.91
2022-08-02T12:37:42.958Z,101557.31
2022-08-02T12:40:25.611Z,101550.81
2022-08-02T12:42:56.491Z,101551.19
2022-08-02T12:45:27.020Z,101551.91
2022-08-02T12:48:07.213Z,101546.50
2022-08-02T12:50:37.662Z,101543.22
2022-08-02T12:53:08.124Z,101537.91
2022-08-02T12:55:59.818Z,101526.09
2022-08-02T12:58:26.717Z,101522.06
2022-08-02T13:00:58.386Z,101535.94
2022-08-02T13:04:10.325Z,101531.19
2022-08-02T13:06:39.885Z,101522.22
2022-08-02T13:09:03.041Z,101526.44
2022-08-02T13:11:31.074Z,101530.63
2022-08-02T13:13:58.895Z,101542.41
2022-08-02T13:16:30.788Z,101541.06
2022-08-02T13:19:00.248Z,101533.50
2022-08-02T13:21:41.525Z,101529.91
2022-08-02T13:24:20.835Z,101531.72
2022-08-02T13:27:08.477Z,101524.09
2022-08-02T13:29:37.215Z,101528.03
2022-08-02T13:32:06.721Z,101532.50
2022-08-02T13:34:34.570Z,101524.44
2022-08-02T13:37:02.840Z,101518.59
2022-08-02T13:39:30.800Z,101518.59
2022-08-02T13:41:58.651Z,101528.00
2022-08-02T13:44:26.650Z,101510.00
2022-08-02T13:46:54.523Z,101515.94
2022-08-02T13:49:51.212Z,101517.63
2022-08-02T13:52:13.078Z,101519.25
2022-08-02T13:54:41.231Z,101509.03
2022-08-02T13:57:09.179Z,101507.31
2022-08-02T13:59:57.457Z,101506.97
2022-08-02T14:02:24.994Z,101496.66
2022-08-02T14:04:54.406Z,101496.28
2022-08-02T14:07:22.871Z,101500.06
2022-08-02T14:09:50.878Z,101491.66
2022-08-02T14:12:18.984Z,101490.13
2022-08-02T14:14:46.838Z,101489.06
2022-08-02T14:17:14.716Z,101488.91
2022-08-02T14:19:42.771Z,101491.66
2022-08-02T14:22:12.572Z,101489.66
2022-08-02T14:24:41.602Z,101490.63
2022-08-02T14:27:10.119Z,101477.28
2022-08-02T14:29:38.105Z,101471.03
2022-08-02T14:32:06.686Z,101472.25
2022-08-02T14:34:34.822Z,101471.63
2022-08-02T14:37:02.960Z,101473.41
2022-08-02T14:39:42.952Z,101483.22
2022-08-02T14:42:20.210Z,101473.16
2022-08-02T14:44:48.102Z,101463.56
2022-08-02T14:47:15.970Z,101470.16
2022-08-02T14:49:47.159Z,101460.91
2022-08-02T14:52:17.845Z,101460.25
2022-08-02T14:54:47.437Z,101461.00
2022-08-02T14:57:15.811Z,101458.25
2022-08-02T14:59:43.707Z,101457.03
2022-08-02T15:02:13.811Z,101457.81
2022-08-02T15:04:43.671Z,101459.88
2022-08-02T15:07:12.821Z,101458.00
2022-08-02T15:09:40.644Z,101454.41
2022-08-02T15:12:11.558Z,101446.63
2022-08-02T15:14:40.041Z,101443.84
2022-08-02T15:17:08.613Z,101434.75
2022-08-02T15:19:56.326Z,101434.69
2022-08-02T15:22:24.732Z,101429.25
2022-08-02T15:24:53.058Z,101430.06
2022-08-02T15:27:22.461Z,101436.69
2022-08-02T15:29:50.558Z,101434.06
2022-08-02T15:32:19.762Z,101423.16
2022-08-02T15:34:48.285Z,101422.59
2022-08-02T15:37:16.440Z,101421.22
2022-08-02T15:39:44.639Z,101423.38
2022-08-02T15:42:13.648Z,101421.56
2022-08-02T15:44:45.042Z,101426.03
2022-08-02T15:47:15.541Z,101424.13
2022-08-02T15:49:43.667Z,101424.72
2022-08-02T15:52:12.064Z,101423.00
2022-08-02T15:54:40.252Z,101417.06
2022-08-02T15:57:08.628Z,101407.53
2022-08-02T15:59:36.772Z,101418.00
2022-08-02T16:02:06.962Z,101413.19
2022-08-02T16:04:34.989Z,101413.84
2022-08-02T16:07:03.263Z,101416.59
2022-08-02T16:09:31.241Z,101408.94
2022-08-02T16:12:02.033Z,101415.16
2022-08-02T16:14:30.048Z,101408.56
2022-08-02T16:16:57.983Z,101402.50
2022-08-02T16:19:46.547Z,101408.63
2022-08-02T16:22:16.145Z,101403.94
2022-08-02T16:24:44.249Z,101403.28
2022-08-02T16:27:12.230Z,101416.97
2022-08-02T16:29:40.288Z,101410.91
2022-08-02T16:32:08.460Z,101411.09
2022-08-02T16:34:57.087Z,101400.41
2022-08-02T16:37:25.648Z,101405.44
2022-08-02T16:39:53.491Z,101394.47
2022-08-02T16:42:25.248Z,101402.69
2022-08-02T16:44:54.816Z,101398.72
2022-08-02T16:47:37.114Z,101393.53
2022-08-02T16:50:12.907Z,101392.38
2022-08-02T16:52:40.997Z,101398.91
2022-08-02T16:55:11.166Z,101394.19
2022-08-02T16:57:45.392Z,101393.06
2022-08-02T17:00:18.621Z,101387.97
2022-08-02T17:02:47.174Z,101387.50
2022-08-02T17:05:16.701Z,101388.25
2022-08-02T17:08:07.865Z,101391.84
2022-08-02T17:10:34.729Z,101385.03
2022-08-02T17:13:11.095Z,101372.19
2022-08-02T17:16:17.435Z,101374.09
2022-08-02T17:18:29.297Z,101376.53
2022-08-02T17:20:59.247Z,101382.19
2022-08-02T17:24:04.537Z,101379.53
2022-08-02T17:26:15.303Z,101377.63
2022-08-02T17:29:14.660Z,101378.28
2022-08-02T17:31:37.251Z,101383.41
2022-08-02T17:34:11.025Z,101380.13
2022-08-02T17:36:40.600Z,101377.09
2022-08-02T17:39:08.603Z,101375.69
2022-08-02T17:44:37.128Z,101374.81
2022-08-02T17:47:08.547Z,101374.09
2022-08-02T17:49:48.158Z,101368.78
2022-08-02T17:52:49.950Z,101375.88
2022-08-02T17:55:07.555Z,101375.69
2022-08-02T17:57:57.369Z,101373.66
2022-08-02T18:00:24.706Z,101369.13
2022-08-02T18:02:55.459Z,101366.13
2022-08-02T18:05:39.374Z,101368.47
2022-08-02T18:08:14.156Z,101366.31
2022-08-02T18:10:43.412Z,101372.13
2022-08-02T18:13:12.222Z,101362.91
2022-08-02T18:15:40.144Z,101372.63
2022-08-02T18:18:08.643Z,101377.34
2022-08-02T18:20:36.559Z,101368.66
2022-08-02T18:23:05.652Z,101370.06
2022-08-02T18:25:45.705Z,101378.84
2022-08-02T18:28:15.705Z,101377.88
2022-08-02T18:30:43.764Z,101375.53
2022-08-02T18:33:54.598Z,101374.66
2022-08-02T18:36:00.002Z,101381.38
2022-08-02T18:38:30.290Z,101378.22
2022-08-02T18:41:02.873Z,101374.78
2022-08-02T18:43:34.764Z,101377.72
2022-08-02T18:46:16.160Z,101372.78
2022-08-02T18:48:47.849Z,101375.22
2022-08-02T18:51:18.807Z,101385.88
2022-08-02T18:53:51.275Z,101375.47
2022-08-02T18:56:24.186Z,101383.69
2022-08-02T18:58:53.009Z,101387.66
2022-08-02T19:01:21.828Z,101378.94
2022-08-02T19:03:59.567Z,101373.00
2022-08-02T19:06:29.122Z,101374.56
2022-08-02T19:09:05.180Z,101376.63
2022-08-02T19:11:41.072Z,101378.22
2022-08-02T19:14:09.341Z,101381.03
2022-08-02T19:16:38.213Z,101375.38
2022-08-02T19:19:06.684Z,101382.91
2022-08-02T19:22:26.686Z,101381.22
2022-08-02T19:24:22.735Z,101375.59
2022-08-02T19:26:52.862Z,101381.94
2022-08-02T19:29:43.454Z,101392.69
2022-08-02T19:32:39.975Z,101379.88
2022-08-02T19:35:00.223Z,101380.44
2022-08-02T19:37:36.897Z,101381.63
2022-08-02T19:40:06.540Z,101379.94
2022-08-02T19:42:55.634Z,101388.97
2022-08-02T19:45:30.188Z,101378.22
2022-08-02T19:48:15.692Z,101383.69
2022-08-02T19:50:44.131Z,101392.94
2022-08-02T19:53:18.354Z,101391.22
2022-08-02T19:56:00.260Z,101380.84
2022-08-02T19:58:32.471Z,101387.41
2022-08-02T20:01:03.672Z,101383.31
2022-08-02T20:03:51.492Z,101396.47
2022-08-02T20:06:28.580Z,101391.34
2022-08-02T20:09:01.325Z,101389.00
2022-08-02T20:11:34.426Z,101386.44
2022-08-02T20:14:05.873Z,101390.72
2022-08-02T20:16:34.396Z,101388.19
2022-08-02T20:19:07.908Z,101386.84
2022-08-02T20:24:26.621Z,101392.47
2022-08-02T20:26:54.824Z,101394.03
2022-08-02T20:29:43.184Z,101397.94
2022-08-02T20:32:14.589Z,101404.94
2022-08-02T20:34:42.939Z,101396.56
2022-08-02T20:37:56.186Z,101404.75
2022-08-02T20:40:05.703Z,101397.44
2022-08-02T20:42:34.265Z,101396.44
2022-08-02T20:45:04.596Z,101400.19
2022-08-02T20:47:39.214Z,101396.94
2022-08-02T20:50:31.551Z,101396.28
2022-08-02T20:53:00.327Z,101404.31
2022-08-02T20:55:31.187Z,101403.28
2022-08-02T20:58:01.757Z,101399.19
2022-08-02T21:00:32.786Z,101410.28
2022-08-02T21:03:02.723Z,101401.59
2022-08-02T21:05:43.691Z,101405.53
2022-08-02T21:08:21.439Z,101406.75
2022-08-02T21:10:51.950Z,101403.50
2022-08-02T21:13:22.442Z,101400.09
2022-08-02T21:15:53.339Z,101392.59
2022-08-02T21:18:33.284Z,101392.41
2022-08-02T21:21:08.897Z,101396.19
2022-08-02T21:23:37.513Z,101391.91
2022-08-02T21:26:06.716Z,101393.97
2022-08-02T21:28:44.947Z,101396.00
2022-08-02T21:31:16.071Z,101393.44
2022-08-02T21:33:56.898Z,101390.72
2022-08-02T21:36:31.195Z,101385.94
2022-08-02T21:39:04.591Z,101383.41
2022-08-02T21:41:39.773Z,101378.97
2022-08-02T21:44:15.960Z,101387.34
2022-08-02T21:46:46.052Z,101383.72
2022-08-02T21:49:14.751Z,101381.16
2022-08-02T21:51:48.890Z,101379.44
2022-08-02T21:57:06.535Z,101393.78
2022-08-02T21:59:35.193Z,101390.34
2022-08-02T22:02:04.608Z,101385.09
2022-08-02T22:04:36.308Z,101387.66
2022-08-02T22:07:04.523Z,101394.13
2022-08-02T22:09:43.757Z,101393.25
2022-08-02T22:12:17.711Z,101390.53
2022-08-02T22:14:49.697Z,101394.28
2022-08-02T22:17:51.160Z,101389.34
2022-08-02T22:20:14.590Z,101399.56
2022-08-02T22:22:43.584Z,101391.72
2022-08-02T22:25:27.231Z,101393.78
2022-08-02T22:28:36.407Z,101399.91
2022-08-02T22:30:52.535Z,101397.53
2022-08-02T22:33:42.274Z,101402.81
2022-08-02T22:36:14.796Z,101404.50
2022-08-02T22:38:44.396Z,101408.78
2022-08-02T22:41:12.941Z,101402.66
2022-08-02T22:43:41.215Z,101399.56
2022-08-02T22:46:09.277Z,101406.91
2022-08-02T22:48:40.178Z,101405.88
2022-08-02T22:51:08.192Z,101415.09
2022-08-02T22:53:36.397Z,101403.31
2022-08-02T22:56:04.948Z,101409.63
2022-08-02T22:58:32.999Z,101405.69
2022-08-02T22:58:39.643Z,101373.78
2022-08-02T22:58:55.201Z,101390.25
2022-08-02T22:59:12.743Z,101384.22
2022-08-02T23:01:01.194Z,101414.03
2022-08-02T23:03:29.686Z,101408.94
2022-08-02T23:05:59.029Z,101414.56
2022-08-02T23:08:27.195Z,101408.44
2022-08-02T23:10:55.041Z,101406.56
2022-08-02T23:13:27.953Z,101408.59
2022-08-02T23:16:14.039Z,101389.84
2022-08-02T23:18:59.571Z,101399.06
2022-08-02T23:22:01.947Z,101396.31
2022-08-02T23:24:22.584Z,101391.03
2022-08-02T23:26:50.669Z,101391.34
2022-08-02T23:29:18.569Z,101394.25
2022-08-02T23:31:46.498Z,101390.16
2022-08-02T23:34:14.512Z,101389.09
2022-08-02T23:36:43.752Z,101393.50
2022-08-02T23:39:11.634Z,101397.25
2022-08-02T23:41:39.733Z,101396.72
2022-08-02T23:44:15.446Z,101394.81
2022-08-02T23:46:44.622Z,101389.16
2022-08-02T23:49:12.994Z,101380.47
2022-08-02T23:51:41.059Z,101389.97
2022-08-02T23:54:10.437Z,101389.63
2022-08-02T23:56:38.932Z,101395.59
2022-08-02T23:59:07.705Z,101390.97
